Time;durP1;ratioP1;P1;durP2;ratioP2;P2;SDS_P1;SDS_P2;PMS_P1;PMS_P2;Temp;Humidity;BMP_temperature;BMP_pressure;BME280_temperature;BME280_humidity;BME280_pressure;Samples;Min_cycle;Max_cycle;Signal;HPM_P1;HPM_P2
2022/11/20 00:00:35;;;;;;;6.07;3.83;;;;;;;;;;5039719;28;20477;-68
2022/11/20 00:03:03;;;;;;;3.40;2.77;;;;;;;;;;5050576;28;20719;-68
2022/11/20 00:05:34;;;;;;;7.40;4.40;;;;;;;;;;5055434;28;20461;-68
2022/11/20 00:08:04;;;;;;;6.93;4.43;;;;;;;;;;5059991;28;20461;-68
2022/11/20 00:10:32;;;;;;;6.07;4.77;;;;;;;;;;5059809;28;20532;-68
2022/11/20 00:13:00;;;;;;;6.87;3.90;;;;;;;;;;5058810;28;20791;-68
2022/11/20 00:15:27;;;;;;;2.20;1.30;;;;;;;;;;5059819;28;20473;-68
2022/11/20 00:17:55;;;;;;;8.73;4.23;;;;;;;;;;5059703;28;20554;-68
2022/11/20 00:20:23;;;;;;;6.20;3.43;;;;;;;;;;5059210;28;20507;-68
2022/11/20 00:22:51;;;;;;;9.40;4.27;;;;;;;;;;5059775;28;20458;-68
2022/11/20 00:25:20;;;;;;;8.20;4.07;;;;;;;;;;5058795;28;21063;-68
2022/11/20 00:27:48;;;;;;;5.10;3.53;;;;;;;;;;5054529;28;20784;-68
2022/11/20 00:30:15;;;;;;;7.40;4.50;;;;;;;;;;5058835;28;20520;-68
2022/11/20 00:32:43;;;;;;;5.80;4.70;;;;;;;;;;5059184;28;20466;-67
2022/11/20 00:35:10;;;;;;;8.73;6.40;;;;;;;;;;5058933;28;20805;-67
2022/11/20 00:37:38;;;;;;;13.93;4.27;;;;;;;;;;5058945;28;20527;-68
2022/11/20 00:40:06;;;;;;;7.10;4.47;;;;;;;;;;5058828;28;20449;-68
2022/11/20 00:42:38;;;;;;;7.93;4.67;;;;;;;;;;5054519;28;20556;-68
2022/11/20 00:45:06;;;;;;;5.83;4.40;;;;;;;;;;5039560;28;20476;-68
2022/11/20 00:47:34;;;;;;;6.10;3.33;;;;;;;;;;5039323;28;20542;-68
2022/11/20 00:50:02;;;;;;;6.53;4.37;;;;;;;;;;5038433;28;20828;-68
2022/11/20 00:52:30;;;;;;;7.90;4.80;;;;;;;;;;5039025;28;20482;-68
2022/11/20 00:54:57;;;;;;;7.57;4.73;;;;;;;;;;5059052;28;20453;-68
2022/11/20 00:57:25;;;;;;;9.50;4.73;;;;;;;;;;5058670;28;20737;-68
2022/11/20 00:59:54;;;;;;;4.60;2.83;;;;;;;;;;5048643;28;20910;-68
2022/11/20 01:02:22;;;;;;;6.80;4.67;;;;;;;;;;5038172;28;20454;-68
2022/11/20 01:04:50;;;;;;;8.00;5.17;;;;;;;;;;5038480;28;20583;-68
2022/11/20 01:07:17;;;;;;;6.77;4.57;;;;;;;;;;5038627;28;20956;-68
2022/11/20 01:09:45;;;;;;;6.47;4.17;;;;;;;;;;5038272;28;20462;-68
2022/11/20 01:12:12;;;;;;;8.63;5.13;;;;;;;;;;5038752;28;20851;-68
2022/11/20 01:14:40;;;;;;;6.73;4.70;;;;;;;;;;5038412;28;20485;-68
2022/11/20 01:17:12;;;;;;;12.63;5.20;;;;;;;;;;5038180;28;20459;-68
2022/11/20 01:19:42;;;;;;;5.23;4.43;;;;;;;;;;5056077;28;20562;-67
2022/11/20 01:22:10;;;;;;;7.23;4.27;;;;;;;;;;5058178;28;21348;-68
2022/11/20 01:24:38;;;;;;;7.63;4.70;;;;;;;;;;5058395;28;20709;-68
2022/11/20 01:27:05;;;;;;;5.70;4.40;;;;;;;;;;5058223;28;20853;-68
2022/11/20 01:29:33;;;;;;;7.20;4.67;;;;;;;;;;5058177;28;20527;-68
2022/11/20 01:32:01;;;;;;;7.67;4.53;;;;;;;;;;5058495;28;20469;-68
2022/11/20 01:34:30;;;;;;;5.27;4.60;;;;;;;;;;5058280;28;20949;-69
2022/11/20 01:36:57;;;;;;;7.60;4.50;;;;;;;;;;5057965;28;20450;-68
2022/11/20 01:39:25;;;;;;;7.87;5.33;;;;;;;;;;5056284;28;20486;-69
2022/11/20 01:44:51;;;;;;;10.27;5.60;;;;;;;;;;5041887;28;20457;-68
2022/11/20 01:47:19;;;;;;;7.97;5.07;;;;;;;;;;5054763;28;20461;-68
2022/11/20 01:49:53;;;;;;;8.23;5.70;;;;;;;;;;5058100;28;20925;-69
2022/11/20 01:52:24;;;;;;;6.80;4.83;;;;;;;;;;5057586;28;20528;-68
2022/11/20 01:54:54;;;;;;;6.27;3.93;;;;;;;;;;5057624;28;20466;-68
2022/11/20 01:57:23;;;;;;;6.40;3.73;;;;;;;;;;5038233;28;20457;-68
2022/11/20 01:59:55;;;;;;;7.53;5.00;;;;;;;;;;5037537;28;20762;-68
2022/11/20 02:02:25;;;;;;;6.70;4.47;;;;;;;;;;5037979;28;20882;-69
2022/11/20 02:04:56;;;;;;;9.87;5.37;;;;;;;;;;5050176;28;20508;-68
2022/11/20 02:07:24;;;;;;;11.43;4.47;;;;;;;;;;5057790;28;20457;-68
2022/11/20 02:09:52;;;;;;;5.80;3.83;;;;;;;;;;5057616;28;20862;-68
2022/11/20 02:15:11;;;;;;;7.03;3.77;;;;;;;;;;5037607;28;20552;-68
2022/11/20 02:17:39;;;;;;;7.97;5.20;;;;;;;;;;5037386;28;20458;-68
2022/11/20 02:20:09;;;;;;;5.90;3.40;;;;;;;;;;5037501;28;20559;-68
2022/11/20 02:22:40;;;;;;;10.20;4.90;;;;;;;;;;5037483;28;20459;-68
2022/11/20 02:25:10;;;;;;;8.50;5.50;;;;;;;;;;5037720;28;20450;-69
2022/11/20 02:27:38;;;;;;;6.87;5.40;;;;;;;;;;5037186;28;20454;-68
2022/11/20 02:30:07;;;;;;;6.70;5.23;;;;;;;;;;5052969;28;20520;-68
2022/11/20 02:32:35;;;;;;;7.57;4.63;;;;;;;;;;5057016;28;20476;-68
2022/11/20 02:35:08;;;;;;;8.93;5.93;;;;;;;;;;5056222;28;20465;-67
2022/11/20 02:37:37;;;;;;;5.67;4.27;;;;;;;;;;5036335;28;20528;-68
2022/11/20 02:40:05;;;;;;;7.03;4.20;;;;;;;;;;5037499;28;20493;-68
2022/11/20 02:42:34;;;;;;;7.63;4.37;;;;;;;;;;5050478;28;20473;-68
2022/11/20 02:45:04;;;;;;;7.40;5.27;;;;;;;;;;5056822;28;20453;-68
2022/11/20 02:47:33;;;;;;;6.70;4.90;;;;;;;;;;5040550;28;20461;-68
2022/11/20 02:50:00;;;;;;;8.20;3.80;;;;;;;;;;5047431;28;20519;-68
2022/11/20 02:52:28;;;;;;;6.00;4.30;;;;;;;;;;5044592;28;20545;-68
2022/11/20 02:54:59;;;;;;;8.40;5.53;;;;;;;;;;5052434;28;20461;-68
2022/11/20 02:57:26;;;;;;;12.80;5.23;;;;;;;;;;5056063;28;20449;-68
2022/11/20 02:59:55;;;;;;;11.53;4.60;;;;;;;;;;5055882;28;20479;-68
2022/11/20 03:02:23;;;;;;;11.70;4.67;;;;;;;;;;5056253;28;20484;-68
2022/11/20 03:04:51;;;;;;;4.80;2.93;;;;;;;;;;5055623;28;20777;-68
2022/11/20 03:07:18;;;;;;;7.23;4.37;;;;;;;;;;5056633;28;20858;-68
2022/11/20 03:09:46;;;;;;;6.60;4.07;;;;;;;;;;5056534;28;20453;-68
2022/11/20 03:12:14;;;;;;;5.60;3.07;;;;;;;;;;5056498;28;20967;-68
2022/11/20 03:14:41;;;;;;;8.30;4.70;;;;;;;;;;5056531;28;20457;-68
2022/11/20 03:17:11;;;;;;;6.80;3.53;;;;;;;;;;5056097;28;20508;-68
2022/11/20 03:19:38;;;;;;;6.40;4.23;;;;;;;;;;5056054;28;20500;-67
2022/11/20 03:22:06;;;;;;;7.43;3.40;;;;;;;;;;5056448;28;20453;-67
2022/11/20 03:24:33;;;;;;;10.03;4.90;;;;;;;;;;5056089;28;20457;-67
2022/11/20 03:27:02;;;;;;;6.87;3.30;;;;;;;;;;5056039;28;20461;-69
2022/11/20 03:29:29;;;;;;;5.60;3.83;;;;;;;;;;5056651;28;20741;-68
2022/11/20 03:31:57;;;;;;;9.83;4.20;;;;;;;;;;5056458;28;20481;-69
2022/11/20 03:34:26;;;;;;;3.93;3.07;;;;;;;;;;5057293;28;20519;-69
2022/11/20 03:36:53;;;;;;;4.87;3.33;;;;;;;;;;5055913;28;20919;-68
2022/11/20 03:39:21;;;;;;;5.50;3.50;;;;;;;;;;5056694;28;20485;-68
2022/11/20 03:41:49;;;;;;;6.70;3.60;;;;;;;;;;5056459;28;20465;-68
2022/11/20 03:44:17;;;;;;;5.37;3.50;;;;;;;;;;5055856;28;20861;-68
2022/11/20 03:46:44;;;;;;;5.00;3.00;;;;;;;;;;5056467;28;20457;-68
2022/11/20 03:49:12;;;;;;;3.50;2.70;;;;;;;;;;5056604;28;20445;-68
2022/11/20 03:51:41;;;;;;;5.00;3.13;;;;;;;;;;5057231;28;20519;-68
2022/11/20 03:54:10;;;;;;;6.00;3.20;;;;;;;;;;5056484;28;20714;-68
2022/11/20 03:56:40;;;;;;;4.73;3.10;;;;;;;;;;5057136;28;20468;-68
2022/11/20 03:59:08;;;;;;;6.03;3.43;;;;;;;;;;5051288;28;20487;-68
2022/11/20 04:01:37;;;;;;;6.40;4.07;;;;;;;;;;5056671;28;20457;-68
2022/11/20 04:04:05;;;;;;;4.27;3.20;;;;;;;;;;5057033;28;20524;-68
2022/11/20 04:06:36;;;;;;;7.90;3.13;;;;;;;;;;5056980;28;20453;-68
2022/11/20 04:09:08;;;;;;;5.63;3.60;;;;;;;;;;5057543;28;20454;-68
2022/11/20 04:11:37;;;;;;;7.20;2.83;;;;;;;;;;5058191;28;20457;-68
2022/11/20 04:14:06;;;;;;;6.33;2.60;;;;;;;;;;5057324;28;20465;-68
2022/11/20 04:16:36;;;;;;;4.67;2.30;;;;;;;;;;5063139;28;20449;-68
2022/11/20 04:19:06;;;;;;;5.83;4.10;;;;;;;;;;5077844;28;20488;-68
2022/11/20 04:21:34;;;;;;;5.33;2.63;;;;;;;;;;5077298;28;20483;-68
2022/11/20 04:24:02;;;;;;;10.03;3.47;;;;;;;;;;5076415;28;20521;-68
2022/11/20 04:26:32;;;;;;;6.80;3.50;;;;;;;;;;5077797;28;20488;-68
2022/11/20 04:29:03;;;;;;;6.80;3.53;;;;;;;;;;5064762;28;20456;-68
2022/11/20 04:31:32;;;;;;;5.43;4.07;;;;;;;;;;5057108;28;20805;-68
2022/11/20 04:34:01;;;;;;;7.40;3.67;;;;;;;;;;5056421;28;20454;-68
2022/11/20 04:36:29;;;;;;;6.90;4.00;;;;;;;;;;5064884;28;20464;-68
2022/11/20 04:38:58;;;;;;;7.17;3.53;;;;;;;;;;5078503;28;20464;-68
2022/11/20 04:41:26;;;;;;;4.90;3.90;;;;;;;;;;5076956;28;20853;-68
2022/11/20 04:43:59;;;;;;;6.40;3.10;;;;;;;;;;5077520;28;20535;-68
2022/11/20 04:46:27;;;;;;;5.67;2.87;;;;;;;;;;5077224;28;20930;-68
2022/11/20 04:48:55;;;;;;;5.80;3.33;;;;;;;;;;5070829;28;20480;-68
2022/11/20 04:51:23;;;;;;;6.10;3.97;;;;;;;;;;5056583;28;20454;-68
2022/11/20 04:53:50;;;;;;;6.20;3.20;;;;;;;;;;5058792;28;20884;-68
2022/11/20 04:56:19;;;;;;;4.20;3.30;;;;;;;;;;5060265;28;20449;-68
2022/11/20 04:58:46;;;;;;;5.57;3.77;;;;;;;;;;5057166;28;20496;-69
2022/11/20 05:01:19;;;;;;;13.90;4.70;;;;;;;;;;5054793;28;20517;-68
2022/11/20 05:03:50;;;;;;;6.10;3.47;;;;;;;;;;5046609;28;20548;-68
2022/11/20 05:06:18;;;;;;;5.73;3.77;;;;;;;;;;5060398;28;20788;-68
2022/11/20 05:08:45;;;;;;;7.00;4.80;;;;;;;;;;5062776;28;20531;-68
2022/11/20 05:11:16;;;;;;;5.10;3.50;;;;;;;;;;5069477;28;20453;-68
2022/11/20 05:13:45;;;;;;;5.03;3.57;;;;;;;;;;5060786;28;20563;-68
2022/11/20 05:16:17;;;;;;;4.23;3.37;;;;;;;;;;5065120;28;20454;-68
2022/11/20 05:18:51;;;;;;;8.37;4.27;;;;;;;;;;5080144;28;20936;-68
2022/11/20 05:21:24;;;;;;;4.60;3.40;;;;;;;;;;5080639;28;20573;-69
2022/11/20 05:23:52;;;;;;;6.00;4.20;;;;;;;;;;5067973;28;20448;-68
2022/11/20 05:26:21;;;;;;;6.07;4.27;;;;;;;;;;5074198;28;20448;-69
2022/11/20 05:29:01;;;;;;;6.50;4.43;;;;;;;;;;5058498;28;20877;-67
2022/11/20 05:31:33;;;;;;;7.30;4.33;;;;;;;;;;5059840;28;20547;-67
2022/11/20 05:34:03;;;;;;;6.70;4.53;;;;;;;;;;5060044;28;20457;-67
2022/11/20 05:36:43;;;;;;;5.80;4.40;;;;;;;;;;5059871;28;20433;-67
2022/11/20 05:39:11;;;;;;;9.80;5.30;;;;;;;;;;5060256;28;20492;-68
2022/11/20 05:41:39;;;;;;;16.77;4.30;;;;;;;;;;5059924;28;20449;-67
2022/11/20 05:44:06;;;;;;;6.50;4.00;;;;;;;;;;5060595;28;20828;-68
2022/11/20 05:46:34;;;;;;;6.07;4.20;;;;;;;;;;5059587;28;20446;-67
2022/11/20 05:49:03;;;;;;;10.73;3.90;;;;;;;;;;5079505;28;20473;-67
2022/11/20 05:51:30;;;;;;;6.70;4.53;;;;;;;;;;5065756;28;20450;-68
2022/11/20 05:53:59;;;;;;;6.57;3.70;;;;;;;;;;5059317;28;20469;-69
2022/11/20 05:56:26;;;;;;;12.13;5.43;;;;;;;;;;5059808;28;20445;-67
2022/11/20 05:58:54;;;;;;;5.83;4.50;;;;;;;;;;5059236;28;20457;-68
2022/11/20 06:01:23;;;;;;;6.10;4.70;;;;;;;;;;5059409;28;20477;-68
2022/11/20 06:03:51;;;;;;;9.67;6.23;;;;;;;;;;5042755;28;20502;-68
2022/11/20 06:06:20;;;;;;;5.90;3.47;;;;;;;;;;5039075;28;20447;-68
2022/11/20 06:08:48;;;;;;;9.70;4.77;;;;;;;;;;5038623;28;20462;-68
2022/11/20 06:11:16;;;;;;;8.30;4.90;;;;;;;;;;5039797;28;20794;-68
2022/11/20 06:13:45;;;;;;;7.73;5.03;;;;;;;;;;5054928;28;20731;-68
2022/11/20 06:16:13;;;;;;;7.23;4.87;;;;;;;;;;5058174;28;20472;-68
2022/11/20 06:18:41;;;;;;;6.90;4.87;;;;;;;;;;5076710;28;20535;-68
2022/11/20 06:21:10;;;;;;;9.67;6.30;;;;;;;;;;5078115;28;20569;-68
2022/11/20 06:23:39;;;;;;;11.17;4.90;;;;;;;;;;5077809;28;20491;-67
2022/11/20 06:26:08;;;;;;;7.20;5.33;;;;;;;;;;5061432;28;20457;-68
2022/11/20 06:28:35;;;;;;;7.30;5.43;;;;;;;;;;5057266;28;20877;-67
2022/11/20 06:31:03;;;;;;;8.60;5.53;;;;;;;;;;5058378;28;20465;-68
2022/11/20 06:33:31;;;;;;;8.60;5.30;;;;;;;;;;5057651;28;20464;-67
2022/11/20 06:36:00;;;;;;;6.63;4.60;;;;;;;;;;5058051;28;20742;-69
2022/11/20 06:38:28;;;;;;;9.00;5.57;;;;;;;;;;5054217;28;20507;-68
2022/11/20 06:40:57;;;;;;;8.33;5.43;;;;;;;;;;5057664;28;20492;-68
2022/11/20 06:43:25;;;;;;;8.77;5.87;;;;;;;;;;5057809;28;20465;-68
2022/11/20 06:45:54;;;;;;;11.33;7.50;;;;;;;;;;5058167;28;20497;-68
2022/11/20 06:48:21;;;;;;;10.27;7.20;;;;;;;;;;5057993;28;20818;-68
2022/11/20 06:50:52;;;;;;;10.80;4.90;;;;;;;;;;5066399;28;20840;-67
2022/11/20 06:53:20;;;;;;;12.57;7.67;;;;;;;;;;5062469;28;20450;-68
2022/11/20 06:55:48;;;;;;;11.97;6.07;;;;;;;;;;5055606;28;20456;-69
2022/11/20 06:58:17;;;;;;;9.20;5.23;;;;;;;;;;5057444;28;20944;-68
2022/11/20 07:00:52;;;;;;;11.70;8.80;;;;;;;;;;5056763;28;20779;-68
2022/11/20 07:03:19;;;;;;;9.63;6.10;;;;;;;;;;5046358;28;20521;-68
2022/11/20 07:05:48;;;;;;;6.13;3.57;;;;;;;;;;5056703;28;20832;-68
2022/11/20 07:08:15;;;;;;;6.93;4.23;;;;;;;;;;5057195;28;20515;-69
2022/11/20 07:10:53;;;;;;;11.20;4.80;;;;;;;;;;5056693;28;20438;-68
2022/11/20 07:13:22;;;;;;;9.67;6.40;;;;;;;;;;5055780;28;20461;-68
2022/11/20 07:15:50;;;;;;;7.30;5.70;;;;;;;;;;5045644;28;20524;-68
2022/11/20 07:18:17;;;;;;;10.90;7.07;;;;;;;;;;5049764;28;20462;-68
2022/11/20 07:20:45;;;;;;;12.07;8.47;;;;;;;;;;5056414;28;20520;-68
2022/11/20 07:23:13;;;;;;;12.90;4.93;;;;;;;;;;5056358;28;21112;-68
2022/11/20 07:25:40;;;;;;;14.30;7.60;;;;;;;;;;5056509;28;20500;-68
2022/11/20 07:28:08;;;;;;;10.83;7.50;;;;;;;;;;5056664;28;20468;-68
2022/11/20 07:30:37;;;;;;;10.63;7.50;;;;;;;;;;5047822;28;20489;-68
2022/11/20 07:33:05;;;;;;;10.30;6.27;;;;;;;;;;5068176;28;20567;-68
2022/11/20 07:35:32;;;;;;;11.60;7.20;;;;;;;;;;5095684;28;20466;-68
2022/11/20 07:38:00;;;;;;;9.40;7.20;;;;;;;;;;5096235;28;20463;-68
2022/11/20 07:40:28;;;;;;;15.33;7.77;;;;;;;;;;5096377;28;20475;-67
2022/11/20 07:42:57;;;;;;;11.90;7.87;;;;;;;;;;5095445;28;20451;-68
2022/11/20 07:45:25;;;;;;;10.03;6.00;;;;;;;;;;5095227;28;20563;-69
2022/11/20 07:47:54;;;;;;;8.20;6.67;;;;;;;;;;5094311;28;20476;-69
2022/11/20 07:50:22;;;;;;;10.47;6.53;;;;;;;;;;5079073;28;20503;-68
2022/11/20 07:52:50;;;;;;;11.83;7.40;;;;;;;;;;5094074;28;20466;-68
2022/11/20 07:55:18;;;;;;;7.43;5.90;;;;;;;;;;5095140;28;20459;-68
2022/11/20 07:57:45;;;;;;;12.60;7.57;;;;;;;;;;5095050;28;20455;-68
2022/11/20 08:00:14;;;;;;;9.87;6.40;;;;;;;;;;5094858;28;20577;-68
2022/11/20 08:02:42;;;;;;;12.43;6.70;;;;;;;;;;5095115;28;20550;-68
2022/11/20 08:05:11;;;;;;;10.23;6.73;;;;;;;;;;5095565;28;20463;-68
2022/11/20 08:07:45;;;;;;;12.77;7.40;;;;;;;;;;5094282;28;20497;-68
2022/11/20 08:10:14;;;;;;;13.20;8.27;;;;;;;;;;5094635;28;20451;-68
2022/11/20 08:15:31;;;;;;;14.90;8.10;;;;;;;;;;5095276;28;20937;-68
2022/11/20 08:18:06;;;;;;;9.33;6.70;;;;;;;;;;5094421;28;20570;-68
2022/11/20 08:20:38;;;;;;;11.17;6.20;;;;;;;;;;5108086;28;20474;-68
2022/11/20 08:23:06;;;;;;;9.00;5.30;;;;;;;;;;5115977;28;20506;-68
2022/11/20 08:25:34;;;;;;;11.60;7.63;;;;;;;;;;5085648;28;20827;-68
2022/11/20 08:28:03;;;;;;;10.03;7.00;;;;;;;;;;5078813;28;20503;-68
2022/11/20 08:30:31;;;;;;;11.10;8.00;;;;;;;;;;5080793;28;20471;-68
2022/11/20 08:33:03;;;;;;;12.53;8.30;;;;;;;;;;5078927;28;20840;-68
2022/11/20 08:35:34;;;;;;;11.33;7.10;;;;;;;;;;5084244;28;20477;-69
2022/11/20 08:38:03;;;;;;;13.87;7.40;;;;;;;;;;5096959;28;20469;-68
2022/11/20 08:40:31;;;;;;;9.80;6.90;;;;;;;;;;5095657;28;20747;-69
2022/11/20 08:42:59;;;;;;;13.67;7.30;;;;;;;;;;5098425;28;20471;-68
2022/11/20 08:45:27;;;;;;;9.53;6.13;;;;;;;;;;5088338;28;20526;-68
2022/11/20 08:47:54;;;;;;;14.60;7.80;;;;;;;;;;5079815;28;20464;-68
2022/11/20 08:50:22;;;;;;;10.33;6.47;;;;;;;;;;5080076;28;20444;-68
2022/11/20 08:52:50;;;;;;;10.30;6.60;;;;;;;;;;5079355;28;20464;-69
2022/11/20 08:55:19;;;;;;;13.03;6.67;;;;;;;;;;5079563;28;20455;-68
2022/11/20 08:57:47;;;;;;;14.43;7.90;;;;;;;;;;5080389;28;20887;-68
2022/11/20 09:00:15;;;;;;;12.30;7.50;;;;;;;;;;5079607;28;20468;-69
2022/11/20 09:02:43;;;;;;;11.43;7.27;;;;;;;;;;5079451;28;20467;-68
2022/11/20 09:05:10;;;;;;;9.67;6.70;;;;;;;;;;5079548;28;20875;-68
2022/11/20 09:07:38;;;;;;;11.77;7.03;;;;;;;;;;5079496;28;20990;-69
2022/11/20 09:10:07;;;;;;;9.70;6.20;;;;;;;;;;5079080;28;20456;-69
2022/11/20 09:12:36;;;;;;;9.07;6.20;;;;;;;;;;5081267;28;20469;-68
2022/11/20 09:15:04;;;;;;;8.87;5.13;;;;;;;;;;5083331;28;20464;-72
2022/11/20 09:17:32;;;;;;;7.50;4.40;;;;;;;;;;5076409;28;20460;-68
2022/11/20 09:20:00;;;;;;;9.77;5.57;;;;;;;;;;5091566;28;21071;-68
2022/11/20 09:22:28;;;;;;;8.60;5.20;;;;;;;;;;5100243;28;20484;-68
2022/11/20 09:24:56;;;;;;;8.33;5.13;;;;;;;;;;5096513;28;20559;-68
2022/11/20 09:27:27;;;;;;;8.50;3.93;;;;;;;;;;5097531;28;20532;-68
2022/11/20 09:29:56;;;;;;;7.53;3.83;;;;;;;;;;5089875;28;20452;-68
2022/11/20 09:32:25;;;;;;;6.57;4.43;;;;;;;;;;5090608;28;20518;-68
2022/11/20 09:34:54;;;;;;;5.60;3.57;;;;;;;;;;5087039;28;20452;-69
2022/11/20 09:37:22;;;;;;;7.73;5.27;;;;;;;;;;5089281;28;20464;-68
2022/11/20 09:39:50;;;;;;;5.30;4.03;;;;;;;;;;5100416;28;20736;-68
2022/11/20 09:42:26;;;;;;;7.63;4.50;;;;;;;;;;5090812;28;20489;-68
2022/11/20 09:45:05;;;;;;;11.87;4.93;;;;;;;;;;5082992;28;20452;-68
2022/11/20 09:47:39;;;;;;;4.37;2.97;;;;;;;;;;5076147;28;20536;-68
2022/11/20 09:50:21;;;;;;;6.70;5.37;;;;;;;;;;5096651;28;20463;-67
2022/11/20 09:52:54;;;;;;;8.87;5.33;;;;;;;;;;5096852;28;20491;-68
2022/11/20 09:55:22;;;;;;;8.57;5.23;;;;;;;;;;5078698;28;20812;-68
2022/11/20 09:57:54;;;;;;;9.57;4.73;;;;;;;;;;5078053;28;20503;-68
2022/11/20 10:00:23;;;;;;;7.93;5.00;;;;;;;;;;5080435;28;20896;-69
2022/11/20 10:02:53;;;;;;;7.50;5.07;;;;;;;;;;5093723;28;20496;-68
2022/11/20 10:05:22;;;;;;;4.57;3.70;;;;;;;;;;5081126;28;20484;-66
2022/11/20 10:07:55;;;;;;;10.10;5.00;;;;;;;;;;5116465;28;20463;-69
2022/11/20 10:10:27;;;;;;;11.10;4.87;;;;;;;;;;5117332;28;20523;-69
2022/11/20 10:13:02;;;;;;;9.93;4.57;;;;;;;;;;5116573;28;20523;-68
2022/11/20 10:15:35;;;;;;;6.83;6.10;;;;;;;;;;5082557;28;20788;-68
2022/11/20 10:18:24;;;;;;;8.33;5.07;;;;;;;;;;5077613;28;20471;-68
2022/11/20 10:20:56;;;;;;;10.40;6.57;;;;;;;;;;5067533;28;20460;-69
2022/11/20 10:23:32;;;;;;;6.40;4.03;;;;;;;;;;5077302;28;20960;-69
2022/11/20 10:26:03;;;;;;;12.40;5.27;;;;;;;;;;5096294;28;20559;-69
2022/11/20 10:28:51;;;;;;;8.47;5.63;;;;;;;;;;5096545;28;20542;-69
2022/11/20 10:31:28;;;;;;;6.33;4.63;;;;;;;;;;5062666;28;20481;-68
2022/11/20 10:33:56;;;;;;;16.00;5.73;;;;;;;;;;5091666;28;20456;-68
2022/11/20 10:36:28;;;;;;;7.33;4.17;;;;;;;;;;5087017;28;20455;-69
2022/11/20 10:38:58;;;;;;;5.70;3.50;;;;;;;;;;5092472;28;20560;-68
2022/11/20 10:41:31;;;;;;;7.77;4.53;;;;;;;;;;5071000;28;20832;-68
2022/11/20 10:44:06;;;;;;;7.97;5.77;;;;;;;;;;5094071;28;20550;-68
2022/11/20 10:46:39;;;;;;;11.53;5.23;;;;;;;;;;5094119;28;20480;-68
2022/11/20 10:49:13;;;;;;;5.00;3.30;;;;;;;;;;5095108;28;20455;-68
2022/11/20 10:51:44;;;;;;;5.87;3.83;;;;;;;;;;5083260;28;20490;-68
2022/11/20 10:54:19;;;;;;;4.63;3.17;;;;;;;;;;5075261;28;20883;-68
2022/11/20 10:56:49;;;;;;;9.97;4.67;;;;;;;;;;5075154;28;20515;-69
2022/11/20 10:59:34;;;;;;;10.03;5.27;;;;;;;;;;5074856;28;20452;-68
2022/11/20 11:02:16;;;;;;;5.60;3.73;;;;;;;;;;5075201;28;20553;-68
2022/11/20 11:04:45;;;;;;;5.03;4.27;;;;;;;;;;5075389;28;20472;-69
2022/11/20 11:07:17;;;;;;;7.83;4.77;;;;;;;;;;5075164;28;20764;-68
2022/11/20 11:09:45;;;;;;;6.63;4.87;;;;;;;;;;5075494;28;20464;-69
2022/11/20 11:12:13;;;;;;;9.97;6.40;;;;;;;;;;5075456;28;20464;-69
2022/11/20 11:14:45;;;;;;;6.43;3.63;;;;;;;;;;5091678;28;20568;-69
2022/11/20 11:17:28;;;;;;;8.33;6.40;;;;;;;;;;5094317;28;20443;-68
2022/11/20 11:20:02;;;;;;;6.87;4.47;;;;;;;;;;5094243;28;20463;-68
2022/11/20 11:22:31;;;;;;;11.33;5.00;;;;;;;;;;5093145;28;20478;-68
2022/11/20 11:25:04;;;;;;;5.27;3.37;;;;;;;;;;5082129;28;20471;-69
2022/11/20 11:27:36;;;;;;;7.67;4.90;;;;;;;;;;5095789;28;20458;-70
2022/11/20 11:30:17;;;;;;;18.00;6.43;;;;;;;;;;5095725;28;20455;-69
2022/11/20 11:32:46;;;;;;;6.20;4.90;;;;;;;;;;5077602;28;20495;-69
2022/11/20 11:35:21;;;;;;;5.90;3.70;;;;;;;;;;5092413;28;20474;-69
2022/11/20 11:37:50;;;;;;;4.53;3.10;;;;;;;;;;5094407;28;20447;-69
2022/11/20 11:40:20;;;;;;;5.03;3.53;;;;;;;;;;5089234;28;20547;-68
2022/11/20 11:42:53;;;;;;;6.30;3.47;;;;;;;;;;5074925;28;20534;-68
2022/11/20 11:45:24;;;;;;;7.50;3.73;;;;;;;;;;5073850;28;20452;-69
2022/11/20 11:47:54;;;;;;;4.63;2.87;;;;;;;;;;5073068;28;20496;-68
2022/11/20 11:50:23;;;;;;;3.73;2.53;;;;;;;;;;5087156;28;20499;-68
2022/11/20 11:52:56;;;;;;;4.60;3.27;;;;;;;;;;5094706;28;20455;-68
2022/11/20 11:55:37;;;;;;;4.20;2.83;;;;;;;;;;5094086;28;20506;-68
2022/11/20 11:58:11;;;;;;;5.53;3.10;;;;;;;;;;5078346;28;20547;-68
2022/11/20 12:00:42;;;;;;;4.73;2.60;;;;;;;;;;5090536;28;20468;-68
2022/11/20 12:03:15;;;;;;;4.07;2.97;;;;;;;;;;5079802;28;21002;-68
2022/11/20 12:05:45;;;;;;;4.17;3.23;;;;;;;;;;5110591;28;20524;-68
2022/11/20 12:08:19;;;;;;;4.47;2.87;;;;;;;;;;5120139;28;20904;-68
2022/11/20 12:10:50;;;;;;;4.10;2.70;;;;;;;;;;5119588;28;20446;-68
2022/11/20 12:13:23;;;;;;;5.10;3.10;;;;;;;;;;5119683;28;20730;-68
2022/11/20 12:15:51;;;;;;;4.53;3.07;;;;;;;;;;5119665;28;20445;-68
2022/11/20 12:18:22;;;;;;;4.53;2.20;;;;;;;;;;5106747;28;20757;-68
2022/11/20 12:20:58;;;;;;;3.90;2.60;;;;;;;;;;5097793;28;20442;-69
2022/11/20 12:23:33;;;;;;;3.40;2.30;;;;;;;;;;5118243;28;20559;-68
2022/11/20 12:26:02;;;;;;;4.70;3.20;;;;;;;;;;5080990;28;20458;-67
2022/11/20 12:28:36;;;;;;;5.30;3.40;;;;;;;;;;5095127;28;20471;-68
2022/11/20 12:31:12;;;;;;;3.40;2.30;;;;;;;;;;5097134;28;20914;-69
2022/11/20 12:33:48;;;;;;;3.17;2.27;;;;;;;;;;5085671;28;20522;-68
2022/11/20 12:36:21;;;;;;;4.67;3.40;;;;;;;;;;5073871;28;20463;-69
2022/11/20 12:39:22;;;;;;;4.30;2.97;;;;;;;;;;5093367;28;20523;-69
2022/11/20 12:45:11;;;;;;;6.80;3.90;;;;;;;;;;5079657;28;20495;-68
2022/11/20 12:47:50;;;;;;;3.23;2.47;;;;;;;;;;5079017;28;20517;-68
2022/11/20 12:50:24;;;;;;;4.00;3.27;;;;;;;;;;5108305;28;20447;-67
2022/11/20 12:52:56;;;;;;;4.80;3.10;;;;;;;;;;5099630;28;20537;-69
2022/11/20 12:55:27;;;;;;;5.43;2.83;;;;;;;;;;5093963;28;20516;-69
2022/11/20 12:57:57;;;;;;;4.50;3.03;;;;;;;;;;5096226;28;20458;-68
2022/11/20 13:00:25;;;;;;;4.43;3.23;;;;;;;;;;5095601;28;20843;-68
2022/11/20 13:03:26;;;;;;;5.37;3.10;;;;;;;;;;5099363;28;20531;-68
2022/11/20 13:06:09;;;;;;;4.00;2.90;;;;;;;;;;4996026;28;20463;-69
2022/11/20 13:08:41;;;;;;;5.27;2.50;;;;;;;;;;4996368;28;20456;-68
2022/11/20 13:11:12;;;;;;;5.40;3.30;;;;;;;;;;5056735;28;20520;-69
2022/11/20 13:13:45;;;;;;;5.77;4.43;;;;;;;;;;5091957;28;20495;-68
2022/11/20 13:16:15;;;;;;;5.63;3.27;;;;;;;;;;5090644;28;20982;-68
2022/11/20 13:18:45;;;;;;;5.13;3.67;;;;;;;;;;5081363;28;20436;-67
2022/11/20 13:21:17;;;;;;;5.37;4.30;;;;;;;;;;5085365;28;20469;-68
2022/11/20 13:23:45;;;;;;;3.77;2.80;;;;;;;;;;5095430;28;20495;-68
2022/11/20 13:26:20;;;;;;;4.80;3.30;;;;;;;;;;5094366;28;20558;-68
2022/11/20 13:29:15;;;;;;;7.30;3.90;;;;;;;;;;5093782;28;20460;-68
2022/11/20 13:31:45;;;;;;;6.33;3.70;;;;;;;;;;5093713;28;20475;-68
2022/11/20 13:34:25;;;;;;;4.87;3.00;;;;;;;;;;5094786;28;20487;-68
2022/11/20 13:36:55;;;;;;;4.37;3.83;;;;;;;;;;5095328;28;20594;-69
2022/11/20 13:39:26;;;;;;;10.10;4.03;;;;;;;;;;5094692;28;20551;-68
2022/11/20 13:41:56;;;;;;;4.87;3.70;;;;;;;;;;5093365;28;20483;-68
2022/11/20 13:44:29;;;;;;;5.87;3.43;;;;;;;;;;5094071;28;20463;-69
2022/11/20 13:46:57;;;;;;;6.30;3.97;;;;;;;;;;5095005;28;21004;-68
2022/11/20 13:49:28;;;;;;;5.77;3.80;;;;;;;;;;5093467;28;20471;-68
2022/11/20 13:52:03;;;;;;;5.17;2.90;;;;;;;;;;5092696;28;20483;-67
2022/11/20 13:54:54;;;;;;;4.20;2.77;;;;;;;;;;5077261;28;20533;-68
2022/11/20 13:57:42;;;;;;;4.50;3.37;;;;;;;;;;5054135;28;20494;-68
2022/11/20 14:00:14;;;;;;;3.47;2.90;;;;;;;;;;5085379;28;20705;-69
2022/11/20 14:02:42;;;;;;;8.23;2.60;;;;;;;;;;5094493;28;20490;-68
2022/11/20 14:05:17;;;;;;;3.00;2.10;;;;;;;;;;5094307;28;20459;-68
2022/11/20 14:07:46;;;;;;;4.40;2.70;;;;;;;;;;5095440;28;20477;-68
2022/11/20 14:10:21;;;;;;;4.07;3.03;;;;;;;;;;5093230;28;20463;-68
2022/11/20 14:12:50;;;;;;;5.20;3.67;;;;;;;;;;5085426;28;20463;-68
2022/11/20 14:15:27;;;;;;;2.90;2.20;;;;;;;;;;5077503;28;20464;-67
2022/11/20 14:17:59;;;;;;;4.93;2.50;;;;;;;;;;5088405;28;20467;-67
2022/11/20 14:20:33;;;;;;;4.67;3.23;;;;;;;;;;5095293;28;21129;-68
2022/11/20 14:23:04;;;;;;;4.40;2.93;;;;;;;;;;5096481;28;20491;-69
2022/11/20 14:25:32;;;;;;;8.60;3.00;;;;;;;;;;5079940;28;20445;-69
2022/11/20 14:28:07;;;;;;;3.83;3.07;;;;;;;;;;5073079;28;20472;-68
2022/11/20 14:30:40;;;;;;;4.93;2.73;;;;;;;;;;5072762;28;20474;-69
2022/11/20 14:33:08;;;;;;;3.50;2.90;;;;;;;;;;5072449;28;20473;-69
2022/11/20 14:35:42;;;;;;;5.80;3.17;;;;;;;;;;5074344;28;20513;-69
2022/11/20 14:38:13;;;;;;;4.60;3.07;;;;;;;;;;5074169;28;20487;-69
2022/11/20 14:40:42;;;;;;;5.10;3.80;;;;;;;;;;5093443;28;20473;-68
2022/11/20 14:43:24;;;;;;;3.80;2.83;;;;;;;;;;5095276;28;20873;-68
2022/11/20 14:46:08;;;;;;;4.20;3.17;;;;;;;;;;5095868;28;20516;-69
2022/11/20 14:48:50;;;;;;;4.53;2.60;;;;;;;;;;5093211;28;20443;-69
2022/11/20 14:51:41;;;;;;;5.80;3.30;;;;;;;;;;5080085;28;20448;-69
2022/11/20 14:54:17;;;;;;;6.07;4.57;;;;;;;;;;5094105;28;20603;-69
2022/11/20 14:57:02;;;;;;;5.47;3.53;;;;;;;;;;5094247;28;20809;-68
2022/11/20 14:59:30;;;;;;;3.60;2.53;;;;;;;;;;5093965;28;20456;-68
2022/11/20 15:02:00;;;;;;;4.80;3.33;;;;;;;;;;5094579;28;20859;-68
2022/11/20 15:04:32;;;;;;;4.60;3.67;;;;;;;;;;5091693;28;20443;-68
2022/11/20 15:07:11;;;;;;;3.70;3.23;;;;;;;;;;5078087;28;20474;-68
2022/11/20 15:09:46;;;;;;;3.77;3.20;;;;;;;;;;5094286;28;20540;-68
2022/11/20 15:12:20;;;;;;;4.30;2.90;;;;;;;;;;5093809;28;20501;-69